createdAt,value
2018-07-30T00:00:16.055Z,57.87
2018-07-30T00:01:16.005Z,58.06
2018-07-30T00:02:15.962Z,58.15
2018-07-30T00:03:15.920Z,58.06
2018-07-30T00:04:15.878Z,58.57
2018-07-30T00:05:15.875Z,58.35
2018-07-30T00:06:15.784Z,58.25
2018-07-30T00:07:15.748Z,58.64
2018-07-30T00:08:15.704Z,57.89
2018-07-30T00:09:15.652Z,58.54
2018-07-30T00:10:15.643Z,59.12
2018-07-30T00:11:15.563Z,58.25
2018-07-30T00:12:15.535Z,58.64
2018-07-30T00:13:15.487Z,58.35
2018-07-30T00:14:15.446Z,58.73
2018-07-30T00:15:15.386Z,58.64
2018-07-30T00:16:15.351Z,59.02
2018-07-30T00:17:15.298Z,59.60
2018-07-30T00:18:15.266Z,59.60
2018-07-30T00:19:15.226Z,59.89
2018-07-30T00:20:15.168Z,59.99
2018-07-30T00:21:15.128Z,59.89
2018-07-30T00:22:15.080Z,59.51
2018-07-30T00:23:15.039Z,59.70
2018-07-30T00:24:14.980Z,59.41
2018-07-30T00:25:14.954Z,59.89
2018-07-30T00:26:14.899Z,59.31
2018-07-30T00:27:14.862Z,58.93
2018-07-30T00:28:14.814Z,58.35
2018-07-30T00:29:14.777Z,58.15
2018-07-30T00:30:14.784Z,58.32
2018-07-30T00:31:14.685Z,57.19
2018-07-30T00:32:14.632Z,57.64
2018-07-30T00:33:14.603Z,58.12
2018-07-30T00:34:14.533Z,57.84
2018-07-30T00:35:14.513Z,58.22
2018-07-30T00:36:14.460Z,58.32
2018-07-30T00:37:14.397Z,58.42
2018-07-30T00:38:14.366Z,58.80
2018-07-30T00:39:14.330Z,58.70
2018-07-30T00:40:14.291Z,58.32
2018-07-30T00:41:14.223Z,59.19
2018-07-30T00:42:14.197Z,59.28
2018-07-30T00:43:14.143Z,59.00
2018-07-30T00:44:14.108Z,59.28
2018-07-30T00:45:14.064Z,59.09
2018-07-30T00:46:14.023Z,59.19
2018-07-30T00:47:13.965Z,59.09
2018-07-30T00:48:13.966Z,59.28
2018-07-30T00:49:13.876Z,59.19
2018-07-30T00:50:13.819Z,59.09
2018-07-30T00:51:13.797Z,58.80
2018-07-30T00:52:13.747Z,59.86
2018-07-30T00:53:13.711Z,60.54
2018-07-30T00:54:13.674Z,60.54
2018-07-30T00:55:13.616Z,60.44
2018-07-30T00:56:13.553Z,60.54
2018-07-30T00:57:13.534Z,60.64
2018-07-30T00:58:13.497Z,60.54
2018-07-30T00:59:13.438Z,60.73
2018-07-30T01:00:13.407Z,61.02
2018-07-30T01:01:13.351Z,60.73
2018-07-30T01:02:13.311Z,60.25
2018-07-30T01:03:13.265Z,60.06
2018-07-30T01:04:13.234Z,60.35
2018-07-30T01:05:13.169Z,60.44
2018-07-30T01:06:13.125Z,60.89
2018-07-30T01:07:13.085Z,61.22
2018-07-30T01:08:13.046Z,61.19
2018-07-30T01:09:12.981Z,61.12
2018-07-30T01:10:12.952Z,61.57
2018-07-30T01:11:12.907Z,61.67
2018-07-30T01:12:12.867Z,61.02
2018-07-30T01:13:12.808Z,60.80
2018-07-30T01:14:12.745Z,61.19
2018-07-30T01:15:12.713Z,61.60
2018-07-30T01:16:12.681Z,62.34
2018-07-30T01:17:12.645Z,62.25
2018-07-30T01:18:12.590Z,62.54
2018-07-30T01:19:12.549Z,62.54
2018-07-30T01:20:12.504Z,62.44
2018-07-30T01:21:12.460Z,62.25
2018-07-30T01:22:12.413Z,61.47
2018-07-30T01:23:12.362Z,61.09
2018-07-30T01:24:12.319Z,61.96
2018-07-30T01:25:12.280Z,62.54
2018-07-30T01:26:12.230Z,62.54
2018-07-30T01:27:12.192Z,62.44
2018-07-30T01:28:12.147Z,62.44
2018-07-30T01:29:12.103Z,61.77
2018-07-30T01:30:12.110Z,60.89
2018-07-30T01:31:12.017Z,60.22
2018-07-30T01:32:11.965Z,60.61
2018-07-30T01:33:11.916Z,60.71
2018-07-30T01:34:11.881Z,61.28
2018-07-30T01:35:11.818Z,60.80
2018-07-30T01:36:11.795Z,60.51
2018-07-30T01:37:11.738Z,60.31
2018-07-30T01:38:11.705Z,60.13
2018-07-30T01:39:11.630Z,60.41
2018-07-30T01:40:11.602Z,60.31
2018-07-30T01:41:11.557Z,60.31
2018-07-30T01:42:11.515Z,60.61
2018-07-30T01:43:11.477Z,60.86
2018-07-30T01:44:11.435Z,60.13
2018-07-30T01:45:11.378Z,60.71
2018-07-30T01:46:11.328Z,62.73
2018-07-30T01:47:11.290Z,63.12
2018-07-30T01:48:11.257Z,63.37
2018-07-30T01:49:11.207Z,63.28
2018-07-30T01:50:11.155Z,63.28
2018-07-30T01:51:11.116Z,63.67
2018-07-30T01:52:11.074Z,63.09
2018-07-30T01:53:11.032Z,63.28
2018-07-30T01:54:10.975Z,62.31
2018-07-30T01:55:10.931Z,62.02
2018-07-30T01:56:10.898Z,61.74
2018-07-30T01:57:10.850Z,62.60
2018-07-30T01:58:10.806Z,63.09
2018-07-30T01:59:10.758Z,62.79
2018-07-30T02:00:10.706Z,62.70
2018-07-30T02:01:10.670Z,62.22
2018-07-30T02:02:10.619Z,62.41
2018-07-30T02:03:10.576Z,61.54
2018-07-30T02:04:10.536Z,61.54
2018-07-30T02:05:10.506Z,61.44
2018-07-30T02:06:10.443Z,61.35
2018-07-30T02:07:10.464Z,62.12
2018-07-30T02:08:10.363Z,62.02
2018-07-30T02:09:10.303Z,61.93
2018-07-30T02:10:10.267Z,61.83
2018-07-30T02:11:10.219Z,62.02
2018-07-30T02:12:10.176Z,61.83
2018-07-30T02:13:10.131Z,62.12
2018-07-30T02:14:10.085Z,61.83
2018-07-30T02:15:10.036Z,62.02
2018-07-30T02:16:09.983Z,61.74
2018-07-30T02:17:09.953Z,62.22
2018-07-30T02:18:09.900Z,61.93
2018-07-30T02:19:09.865Z,61.64
2018-07-30T02:20:09.803Z,62.99
2018-07-30T02:21:09.765Z,62.31
2018-07-30T02:22:09.719Z,62.02
2018-07-30T02:23:09.677Z,62.12
2018-07-30T02:24:09.618Z,61.93
2018-07-30T02:25:09.593Z,62.12
2018-07-30T02:26:09.541Z,61.83
2018-07-30T02:27:09.509Z,61.93
2018-07-30T02:28:09.464Z,62.18
2018-07-30T02:29:09.408Z,62.48
2018-07-30T02:30:09.376Z,62.48
2018-07-30T02:31:09.297Z,62.28
2018-07-30T02:32:09.290Z,62.48
2018-07-30T02:33:09.209Z,62.76
2018-07-30T02:34:09.182Z,62.66
2018-07-30T02:35:09.119Z,63.24
2018-07-30T02:36:09.091Z,63.15
2018-07-30T02:37:09.046Z,63.34
2018-07-30T02:38:09.002Z,62.86
2018-07-30T02:39:08.964Z,63.44
2018-07-30T02:40:08.911Z,63.34
2018-07-30T02:41:08.891Z,63.73
2018-07-30T02:42:08.830Z,64.21
2018-07-30T02:43:08.791Z,64.11
2018-07-30T02:44:08.744Z,64.89
2018-07-30T02:45:08.702Z,64.79
2018-07-30T02:46:08.650Z,64.69
2018-07-30T02:47:08.605Z,64.69
2018-07-30T02:48:08.559Z,64.69
2018-07-30T02:49:08.506Z,65.37
2018-07-30T02:50:08.469Z,65.17
2018-07-30T02:51:08.419Z,63.54
2018-07-30T02:52:08.357Z,63.82
2018-07-30T02:53:08.329Z,65.05
2018-07-30T02:54:08.294Z,65.08
2018-07-30T02:55:08.236Z,63.92
2018-07-30T02:56:08.212Z,65.17
2018-07-30T02:57:08.140Z,64.47
2018-07-30T02:58:08.107Z,63.98
2018-07-30T02:59:08.068Z,63.89
2018-07-30T03:00:08.005Z,64.11
2018-07-30T03:01:07.958Z,64.47
2018-07-30T03:02:07.910Z,64.86
2018-07-30T03:03:07.889Z,64.86
2018-07-30T03:04:07.853Z,64.76
2018-07-30T03:05:07.800Z,64.18
2018-07-30T03:06:07.743Z,63.79
2018-07-30T03:07:07.704Z,64.47
2018-07-30T03:08:07.656Z,63.79
2018-07-30T03:09:07.604Z,64.66
2018-07-30T03:10:07.578Z,65.33
2018-07-30T03:11:07.528Z,65.24
2018-07-30T03:12:07.477Z,65.72
2018-07-30T03:13:07.432Z,65.24
2018-07-30T03:14:07.390Z,65.72
2018-07-30T03:15:07.348Z,64.95
2018-07-30T03:16:07.289Z,64.76
2018-07-30T03:17:07.253Z,64.95
2018-07-30T03:18:07.206Z,65.05
2018-07-30T03:19:07.180Z,64.66
2018-07-30T03:20:07.107Z,64.47
2018-07-30T03:21:07.122Z,64.18
2018-07-30T03:22:07.031Z,63.70
2018-07-30T03:23:06.982Z,63.41
2018-07-30T03:24:06.942Z,63.79
2018-07-30T03:25:06.907Z,65.05
2018-07-30T03:26:06.838Z,65.81
2018-07-30T03:27:06.791Z,65.72
2018-07-30T03:28:06.757Z,65.14
2018-07-30T03:29:06.694Z,65.43
2018-07-30T03:30:06.668Z,65.14
2018-07-30T03:31:06.605Z,64.95
2018-07-30T03:32:06.577Z,64.66
2018-07-30T03:33:06.528Z,65.33
2018-07-30T03:34:06.487Z,65.14
2018-07-30T03:35:06.429Z,65.33
2018-07-30T03:36:06.388Z,64.76
2018-07-30T03:37:06.347Z,64.18
2018-07-30T03:38:06.298Z,63.70
2018-07-30T03:39:06.252Z,64.18
2018-07-30T03:40:06.211Z,63.89
2018-07-30T03:41:06.167Z,63.60
2018-07-30T03:42:06.119Z,63.70
2018-07-30T03:43:06.076Z,64.37
2018-07-30T03:44:06.027Z,63.95
2018-07-30T03:45:05.977Z,64.95
2018-07-30T03:46:05.941Z,64.56
2018-07-30T03:47:05.896Z,64.53
2018-07-30T03:48:05.856Z,65.33
2018-07-30T03:49:05.809Z,64.76
2018-07-30T03:50:05.752Z,65.24
2018-07-30T03:51:05.705Z,65.30
2018-07-30T03:52:05.674Z,64.76
2018-07-30T03:53:05.622Z,65.24
2018-07-30T03:54:05.555Z,65.30
2018-07-30T03:55:05.532Z,65.30
2018-07-30T03:56:05.495Z,65.50
2018-07-30T03:57:05.434Z,65.40
2018-07-30T03:58:05.460Z,65.40
2018-07-30T03:59:05.350Z,65.78
2018-07-30T04:00:05.396Z,66.36
2018-07-30T04:01:05.235Z,65.59
2018-07-30T04:02:05.223Z,66.36
2018-07-30T04:03:05.183Z,66.07
2018-07-30T04:04:05.120Z,66.07
2018-07-30T04:05:05.063Z,65.40
2018-07-30T04:06:05.076Z,65.30
2018-07-30T04:07:04.980Z,65.98
2018-07-30T04:08:04.943Z,66.17
2018-07-30T04:09:04.898Z,66.17
2018-07-30T04:10:04.863Z,66.07
2018-07-30T04:11:04.799Z,65.78
2018-07-30T04:12:04.774Z,65.88
2018-07-30T04:13:04.724Z,65.43
2018-07-30T04:14:04.671Z,66.07
2018-07-30T04:15:04.618Z,66.36
2018-07-30T04:16:04.580Z,66.27
2018-07-30T04:17:04.535Z,66.85
2018-07-30T04:18:04.485Z,66.75
2018-07-30T04:19:04.451Z,66.94
2018-07-30T04:20:04.406Z,67.42
2018-07-30T04:21:04.350Z,66.85
2018-07-30T04:22:04.342Z,66.55
2018-07-30T04:23:04.242Z,66.85
2018-07-30T04:24:04.217Z,66.27
2018-07-30T04:25:04.182Z,66.55
2018-07-30T04:26:04.118Z,67.23
2018-07-30T04:27:04.081Z,67.90
2018-07-30T04:28:04.032Z,67.71
2018-07-30T04:29:03.991Z,67.61
2018-07-30T04:30:03.944Z,67.71
2018-07-30T04:31:03.899Z,67.71
2018-07-30T04:32:03.851Z,67.23
2018-07-30T04:33:03.800Z,67.61
2018-07-30T04:34:03.758Z,67.77
2018-07-30T04:35:03.712Z,67.61
2018-07-30T04:36:03.672Z,67.97
2018-07-30T04:37:03.627Z,67.29
2018-07-30T04:38:03.579Z,67.77
2018-07-30T04:39:03.542Z,67.68
2018-07-30T04:40:03.495Z,66.81
2018-07-30T04:41:03.420Z,67.81
2018-07-30T04:42:03.397Z,67.87
2018-07-30T04:43:03.351Z,67.77
2018-07-30T04:44:03.308Z,67.61
2018-07-30T04:45:03.259Z,67.68
2018-07-30T04:46:03.218Z,68.44
2018-07-30T04:47:03.170Z,68.93
2018-07-30T04:48:03.119Z,68.84
2018-07-30T04:49:03.086Z,67.68
2018-07-30T04:50:03.032Z,67.77
2018-07-30T04:51:02.982Z,66.81
2018-07-30T04:52:02.943Z,67.49
2018-07-30T04:53:02.907Z,68.38
2018-07-30T04:54:02.845Z,68.44
2018-07-30T04:55:02.816Z,68.35
2018-07-30T04:56:02.764Z,66.42
2018-07-30T04:57:02.748Z,66.71
2018-07-30T04:58:02.676Z,66.71
2018-07-30T04:59:02.619Z,66.52
2018-07-30T05:00:02.584Z,66.04
2018-07-30T05:01:02.541Z,66.52
2018-07-30T05:02:02.491Z,65.85
2018-07-30T05:03:02.437Z,66.42
2018-07-30T05:04:02.400Z,65.75
2018-07-30T05:05:02.328Z,65.37
2018-07-30T05:06:02.300Z,65.37
2018-07-30T05:07:02.255Z,66.04
2018-07-30T05:08:02.219Z,67.39
2018-07-30T05:09:02.165Z,67.39
2018-07-30T05:10:02.127Z,66.71
2018-07-30T05:11:02.078Z,66.62
2018-07-30T05:12:02.032Z,66.71
2018-07-30T05:13:01.990Z,66.81
2018-07-30T05:14:01.950Z,67.00
2018-07-30T05:15:01.877Z,66.91
2018-07-30T05:16:01.851Z,66.33
2018-07-30T05:17:01.813Z,66.42
2018-07-30T05:18:01.748Z,66.04
2018-07-30T05:19:01.717Z,66.52
2018-07-30T05:20:01.669Z,66.71
2018-07-30T05:21:01.624Z,66.62
2018-07-30T05:22:01.583Z,66.81
2018-07-30T05:23:01.527Z,66.88
2018-07-30T05:24:01.481Z,66.91
2018-07-30T05:25:01.443Z,67.26
2018-07-30T05:26:01.403Z,67.35
2018-07-30T05:27:01.346Z,66.58
2018-07-30T05:28:01.307Z,66.58
2018-07-30T05:29:01.268Z,67.45
2018-07-30T05:30:01.215Z,67.74
2018-07-30T05:31:01.153Z,68.41
2018-07-30T05:32:01.128Z,68.51
2018-07-30T05:33:01.071Z,67.93
2018-07-30T05:34:01.017Z,68.51
2018-07-30T05:35:00.992Z,67.35
2018-07-30T05:36:00.949Z,67.16
2018-07-30T05:37:00.897Z,67.35
2018-07-30T05:38:00.850Z,67.65
2018-07-30T05:39:00.808Z,67.65
2018-07-30T05:40:00.766Z,67.74
2018-07-30T05:41:00.707Z,68.41
2018-07-30T05:42:00.668Z,68.41
2018-07-30T05:43:00.619Z,68.22
2018-07-30T05:44:00.564Z,68.41
2018-07-30T05:45:00.522Z,67.74
2018-07-30T05:46:00.480Z,67.55
2018-07-30T05:47:00.446Z,67.74
2018-07-30T05:48:00.394Z,68.70
2018-07-30T05:49:00.324Z,68.80
2018-07-30T05:50:00.363Z,68.51
2018-07-30T05:51:00.251Z,68.90
2018-07-30T05:52:00.204Z,68.70
2018-07-30T05:53:00.148Z,68.60
2018-07-30T05:54:00.121Z,68.90
2018-07-30T05:55:00.049Z,68.22
2018-07-30T05:56:00.032Z,68.51
2018-07-30T05:56:59.982Z,67.65
2018-07-30T05:57:59.933Z,67.74
2018-07-30T05:58:59.874Z,67.93
2018-07-30T05:59:59.837Z,67.93
2018-07-30T06:00:59.787Z,67.16
2018-07-30T06:01:59.756Z,67.74
2018-07-30T06:02:59.710Z,67.74
2018-07-30T06:03:59.665Z,67.74
2018-07-30T06:04:59.661Z,68.80
2018-07-30T06:05:59.555Z,68.70
2018-07-30T06:06:59.539Z,69.09
2018-07-30T06:07:59.473Z,68.51
2018-07-30T06:08:59.439Z,67.65
2018-07-30T06:09:59.392Z,67.55
2018-07-30T06:10:59.328Z,66.20
2018-07-30T06:11:59.290Z,66.49
2018-07-30T06:12:59.251Z,66.97
2018-07-30T06:13:59.216Z,67.16
2018-07-30T06:14:59.157Z,66.68
2018-07-30T06:15:59.108Z,66.68
2018-07-30T06:16:59.072Z,67.83
2018-07-30T06:17:59.026Z,67.35
2018-07-30T06:18:58.980Z,67.65
2018-07-30T06:19:58.949Z,67.55
2018-07-30T06:20:58.964Z,68.22
2018-07-30T06:21:58.819Z,68.80
2018-07-30T06:22:58.790Z,68.80
2018-07-30T06:23:58.728Z,68.70
2018-07-30T06:24:58.691Z,68.70
2018-07-30T06:25:58.634Z,68.51
2018-07-30T06:26:58.606Z,68.90
2018-07-30T06:27:58.573Z,68.70
2018-07-30T06:28:58.515Z,68.60
2018-07-30T06:29:58.476Z,68.70
2018-07-30T06:30:58.436Z,68.90
2018-07-30T06:31:58.384Z,68.80
2018-07-30T06:32:58.342Z,68.41
2018-07-30T06:33:58.302Z,68.51
2018-07-30T06:34:58.306Z,67.35
2018-07-30T06:35:58.194Z,68.60
2018-07-30T06:36:58.162Z,68.80
2018-07-30T06:37:58.107Z,68.80
2018-07-30T06:38:58.071Z,68.51
2018-07-30T06:39:58.014Z,68.90
2018-07-30T06:40:57.957Z,68.41
2018-07-30T06:41:57.943Z,68.80
2018-07-30T06:42:57.885Z,68.80
2018-07-30T06:43:57.834Z,68.80
2018-07-30T06:44:57.779Z,68.80
2018-07-30T06:45:57.745Z,68.32
2018-07-30T06:46:57.702Z,68.80
2018-07-30T06:47:57.673Z,68.90
2018-07-30T06:48:57.615Z,68.76
2018-07-30T06:49:57.561Z,68.86
2018-07-30T06:50:57.535Z,68.90
2018-07-30T06:51:57.474Z,68.90
2018-07-30T06:52:57.430Z,69.09
2018-07-30T06:53:57.382Z,68.41
2018-07-30T06:54:57.329Z,68.60
2018-07-30T06:55:57.282Z,68.51
2018-07-30T06:56:57.244Z,68.67
2018-07-30T06:57:57.200Z,68.80
2018-07-30T06:58:57.696Z,68.99
2018-07-30T06:59:57.103Z,68.41
2018-07-30T07:00:57.068Z,68.67
2018-07-30T07:01:57.074Z,68.86
2018-07-30T07:02:56.963Z,68.96
2018-07-30T07:03:56.924Z,68.67
2018-07-30T07:04:56.879Z,68.67
2018-07-30T07:05:56.849Z,68.96
2018-07-30T07:06:56.789Z,69.63
2018-07-30T07:07:56.730Z,69.73
2018-07-30T07:08:56.696Z,69.73
2018-07-30T07:09:56.651Z,69.24
2018-07-30T07:10:56.628Z,69.73
2018-07-30T07:11:56.560Z,70.40
2018-07-30T07:12:56.492Z,70.30
2018-07-30T07:13:56.484Z,69.63
2018-07-30T07:14:56.421Z,70.30
2018-07-30T07:15:56.362Z,70.30
2018-07-30T07:16:56.402Z,70.40
2018-07-30T07:17:56.281Z,69.92
2018-07-30T07:18:56.245Z,69.24
2018-07-30T07:19:56.197Z,69.34
2018-07-30T07:20:56.130Z,70.30
2018-07-30T07:21:56.114Z,70.01
2018-07-30T07:22:56.057Z,70.40
2018-07-30T07:23:56.016Z,69.82
2018-07-30T07:24:55.965Z,69.82
2018-07-30T07:25:55.914Z,70.21
2018-07-30T07:26:55.895Z,69.98
2018-07-30T07:27:55.863Z,71.08
2018-07-30T07:28:55.775Z,71.04
2018-07-30T07:29:55.736Z,70.98
2018-07-30T07:30:55.680Z,71.04
2018-07-30T07:31:55.643Z,71.14
2018-07-30T07:32:55.588Z,70.94
2018-07-30T07:33:55.550Z,71.17
2018-07-30T07:34:55.526Z,71.65
2018-07-30T07:35:55.450Z,71.14
2018-07-30T07:36:55.409Z,70.94
2018-07-30T07:37:55.358Z,71.04
2018-07-30T07:38:55.307Z,71.61
2018-07-30T07:39:55.276Z,71.23
2018-07-30T07:40:55.233Z,71.52
2018-07-30T07:41:55.176Z,71.33
2018-07-30T07:42:55.129Z,71.23
2018-07-30T07:43:55.092Z,71.52
2018-07-30T07:44:55.070Z,71.81
2018-07-30T07:45:54.999Z,71.52
2018-07-30T07:46:54.944Z,71.42
2018-07-30T07:47:54.914Z,71.46
2018-07-30T07:48:54.850Z,71.65
2018-07-30T07:49:54.822Z,71.55
2018-07-30T07:50:54.909Z,71.75
2018-07-30T07:51:54.715Z,71.46
2018-07-30T07:52:54.669Z,71.84
2018-07-30T07:53:54.627Z,72.00
2018-07-30T07:54:54.592Z,72.13
2018-07-30T07:55:54.539Z,72.09
2018-07-30T07:56:54.495Z,72.19
2018-07-30T07:57:54.456Z,73.06
2018-07-30T07:58:54.393Z,73.06
2018-07-30T07:59:54.360Z,73.73
2018-07-30T08:00:54.311Z,73.63
2018-07-30T08:01:54.281Z,74.02
2018-07-30T08:02:54.219Z,74.30
2018-07-30T08:03:54.201Z,74.40
2018-07-30T08:04:54.135Z,74.50
2018-07-30T08:05:54.077Z,74.60
2018-07-30T08:06:54.027Z,74.94
2018-07-30T08:07:53.991Z,75.17
2018-07-30T08:08:53.938Z,74.30
2018-07-30T08:09:53.958Z,74.50
2018-07-30T08:10:53.880Z,74.40
2018-07-30T08:11:53.803Z,74.88
2018-07-30T08:12:53.749Z,75.17
2018-07-30T08:13:53.702Z,75.27
2018-07-30T08:14:53.658Z,75.32
2018-07-30T08:15:53.614Z,75.71
2018-07-30T08:16:53.573Z,75.56
2018-07-30T08:17:53.533Z,75.94
2018-07-30T08:18:53.484Z,75.56
2018-07-30T08:19:53.435Z,75.46
2018-07-30T08:20:53.404Z,75.71
2018-07-30T08:21:53.344Z,76.52
2018-07-30T08:22:53.296Z,76.32
2018-07-30T08:23:53.264Z,75.84
2018-07-30T08:24:53.215Z,76.61
2018-07-30T08:25:53.162Z,76.42
2018-07-30T08:26:53.097Z,76.81
2018-07-30T08:27:53.052Z,77.29
2018-07-30T08:28:53.001Z,77.09
2018-07-30T08:29:52.966Z,77.19
2018-07-30T08:30:52.944Z,77.09
2018-07-30T08:31:52.888Z,78.25
2018-07-30T08:32:52.908Z,78.15
2018-07-30T08:33:52.781Z,78.06
2018-07-30T08:34:52.720Z,79.02
2018-07-30T08:35:52.701Z,79.21
2018-07-30T08:36:52.634Z,79.40
2018-07-30T08:37:52.622Z,79.79
2018-07-30T08:38:52.560Z,80.22
2018-07-30T08:39:52.514Z,81.04
2018-07-30T08:40:52.465Z,81.67
2018-07-30T08:41:52.408Z,81.67
2018-07-30T08:42:52.382Z,82.53
2018-07-30T08:43:52.325Z,82.15
2018-07-30T08:44:52.281Z,82.05
2018-07-30T08:45:52.235Z,82.53
2018-07-30T08:46:52.173Z,82.43
2018-07-30T08:47:52.143Z,82.15
2018-07-30T08:48:52.148Z,82.73
2018-07-30T08:49:52.051Z,82.73
2018-07-30T08:50:52.005Z,82.92
2018-07-30T08:51:51.944Z,83.78
2018-07-30T08:52:51.920Z,83.78
2018-07-30T08:53:51.868Z,84.26
2018-07-30T08:54:51.811Z,84.45
2018-07-30T08:55:51.789Z,84.84
2018-07-30T08:56:51.729Z,84.70
2018-07-30T08:57:51.673Z,84.60
2018-07-30T08:58:51.632Z,84.84
2018-07-30T08:59:51.588Z,84.60
2018-07-30T09:00:51.538Z,84.70
2018-07-30T09:01:51.472Z,84.80
2018-07-30T09:02:51.455Z,84.51
2018-07-30T09:03:51.409Z,84.22
2018-07-30T09:04:51.357Z,84.45
2018-07-30T09:05:51.341Z,84.70
2018-07-30T09:06:51.262Z,85.08
2018-07-30T09:07:51.218Z,85.28
2018-07-30T09:08:51.216Z,84.89
2018-07-30T09:09:51.130Z,85.28
2018-07-30T09:10:51.079Z,85.37
2018-07-30T09:11:51.039Z,85.75
2018-07-30T09:12:51.109Z,86.33
2018-07-30T09:13:50.940Z,86.87
2018-07-30T09:14:50.891Z,87.10
2018-07-30T09:15:50.847Z,87.15
2018-07-30T09:16:50.808Z,87.82
2018-07-30T09:17:50.747Z,88.02
2018-07-30T09:18:50.708Z,88.21
2018-07-30T09:19:50.673Z,88.69
2018-07-30T09:20:50.609Z,88.31
2018-07-30T09:21:50.568Z,88.69
2018-07-30T09:22:50.507Z,89.46
2018-07-30T09:23:50.449Z,89.46
2018-07-30T09:24:50.431Z,89.75
2018-07-30T09:25:50.391Z,90.85
2018-07-30T09:26:50.387Z,90.52
2018-07-30T09:27:50.288Z,91.09
2018-07-30T09:28:50.258Z,90.90
2018-07-30T09:29:50.195Z,91.62
2018-07-30T09:30:50.139Z,91.28
2018-07-30T09:31:50.108Z,91.62
2018-07-30T09:32:50.079Z,91.91
2018-07-30T09:33:50.010Z,92.48
2018-07-30T09:34:49.965Z,93.35
2018-07-30T09:35:49.907Z,93.73
2018-07-30T09:36:49.867Z,94.79
2018-07-30T09:37:49.829Z,95.17
2018-07-30T09:38:49.838Z,95.17
2018-07-30T09:39:49.734Z,95.36
2018-07-30T09:40:49.681Z,95.17
2018-07-30T09:41:49.640Z,95.55
2018-07-30T09:42:49.593Z,96.22
2018-07-30T09:43:49.538Z,96.32
2018-07-30T09:44:49.521Z,96.32
2018-07-30T09:45:49.445Z,96.51
2018-07-30T09:46:49.404Z,96.99
2018-07-30T09:47:49.329Z,96.80
2018-07-30T09:48:49.310Z,96.89
2018-07-30T09:49:49.257Z,96.70
2018-07-30T09:50:49.190Z,96.89
2018-07-30T09:51:49.160Z,96.89
2018-07-30T09:52:49.114Z,96.51
2018-07-30T09:53:49.054Z,97.09
2018-07-30T09:54:49.025Z,97.47
2018-07-30T09:55:48.974Z,97.47
2018-07-30T09:56:48.903Z,97.56
2018-07-30T09:57:48.882Z,97.76
2018-07-30T09:58:48.837Z,97.86
2018-07-30T09:59:48.789Z,97.95
2018-07-30T10:00:48.744Z,97.76
2018-07-30T10:01:48.695Z,97.56
2018-07-30T10:02:48.631Z,97.76
2018-07-30T10:03:48.598Z,97.66
2018-07-30T10:04:48.606Z,98.62
2018-07-30T10:05:48.506Z,98.62
2018-07-30T10:06:48.502Z,98.43
2018-07-30T10:07:48.478Z,98.62
2018-07-30T10:08:48.370Z,98.43
2018-07-30T10:09:48.328Z,98.43
2018-07-30T10:10:48.279Z,98.38
2018-07-30T10:11:48.250Z,97.56
2018-07-30T10:12:48.155Z,97.66
2018-07-30T10:13:48.145Z,98.14
2018-07-30T10:14:48.079Z,98.14
2018-07-30T10:15:48.041Z,97.66
2018-07-30T10:16:47.989Z,97.76
2018-07-30T10:17:47.961Z,98.29
2018-07-30T10:18:47.902Z,97.91
2018-07-30T10:19:47.845Z,97.61
2018-07-30T10:20:47.807Z,97.38
2018-07-30T10:21:47.753Z,97.66
2018-07-30T10:22:47.703Z,98.24
2018-07-30T10:23:47.770Z,97.91
2018-07-30T10:24:47.628Z,97.52
2018-07-30T10:25:47.555Z,97.04
2018-07-30T10:26:47.515Z,96.75
2018-07-30T10:27:47.485Z,97.52
2018-07-30T10:28:47.427Z,96.75
2018-07-30T10:29:47.389Z,97.71
2018-07-30T10:30:47.429Z,98.00
2018-07-30T10:31:47.287Z,98.00
2018-07-30T10:32:47.225Z,97.52
2018-07-30T10:33:47.190Z,97.33
2018-07-30T10:34:47.157Z,97.14
2018-07-30T10:35:47.115Z,97.42
2018-07-30T10:36:47.049Z,98.00
2018-07-30T10:37:47.011Z,97.52
2018-07-30T10:38:46.965Z,98.00
2018-07-30T10:39:46.914Z,98.00
2018-07-30T10:40:46.870Z,97.61
2018-07-30T10:41:46.825Z,98.00
2018-07-30T10:42:46.775Z,97.61
2018-07-30T10:43:46.763Z,97.71
2018-07-30T10:44:46.691Z,97.14
2018-07-30T10:45:46.622Z,97.52
2018-07-30T10:46:46.599Z,97.52
2018-07-30T10:47:46.541Z,97.61
2018-07-30T10:48:46.489Z,97.33
2018-07-30T10:49:46.438Z,96.85
2018-07-30T10:50:46.397Z,97.14
2018-07-30T10:51:46.363Z,96.85
2018-07-30T10:52:46.317Z,96.56
2018-07-30T10:53:46.271Z,96.66
2018-07-30T10:54:46.228Z,96.94
2018-07-30T10:55:46.179Z,96.80
2018-07-30T10:56:46.129Z,96.32
2018-07-30T10:57:46.129Z,96.32
2018-07-30T10:58:46.028Z,95.98
2018-07-30T10:59:45.997Z,95.60
2018-07-30T11:00:45.938Z,96.56
2018-07-30T11:01:45.888Z,96.22
2018-07-30T11:02:45.901Z,94.98
2018-07-30T11:03:45.848Z,93.49
2018-07-30T11:04:45.766Z,93.39
2018-07-30T11:05:45.748Z,92.62
2018-07-30T11:06:45.680Z,92.72
2018-07-30T11:07:45.633Z,92.24
2018-07-30T11:08:45.566Z,92.19
2018-07-30T11:09:45.567Z,92.72
2018-07-30T11:10:45.494Z,92.96
2018-07-30T11:11:45.437Z,93.01
2018-07-30T11:12:45.401Z,92.62
2018-07-30T11:13:45.335Z,91.90
2018-07-30T11:14:45.387Z,90.65
2018-07-30T11:15:45.259Z,90.36
2018-07-30T11:16:45.216Z,90.07
2018-07-30T11:17:45.181Z,88.10
2018-07-30T11:18:45.135Z,88.00
2018-07-30T11:19:45.090Z,87.04
2018-07-30T11:20:45.137Z,86.85
2018-07-30T11:21:45.070Z,86.18
2018-07-30T11:22:44.949Z,86.46
2018-07-30T11:23:44.917Z,86.27
2018-07-30T11:24:44.877Z,86.85
2018-07-30T11:25:44.809Z,86.94
2018-07-30T11:26:44.781Z,87.04
2018-07-30T11:27:44.732Z,87.42
2018-07-30T11:28:44.702Z,87.42
2018-07-30T11:29:44.638Z,87.96
2018-07-30T11:30:44.606Z,88.15
2018-07-30T11:31:44.536Z,88.57
2018-07-30T11:32:44.509Z,88.00
2018-07-30T11:33:44.464Z,86.85
2018-07-30T11:34:44.435Z,87.29
2018-07-30T11:35:44.377Z,88.00
2018-07-30T11:36:44.338Z,87.96
2018-07-30T11:37:44.292Z,87.13
2018-07-30T11:38:44.252Z,87.13
2018-07-30T11:39:44.196Z,87.04
2018-07-30T11:40:44.164Z,86.94
2018-07-30T11:41:44.114Z,86.85
2018-07-30T11:42:44.051Z,86.85
2018-07-30T11:43:44.088Z,86.75
2018-07-30T11:44:43.974Z,86.75
2018-07-30T11:45:43.923Z,86.85
2018-07-30T11:46:43.903Z,87.04
2018-07-30T11:47:43.855Z,87.23
2018-07-30T11:48:43.948Z,87.42
2018-07-30T11:49:43.789Z,87.71
2018-07-30T11:50:43.689Z,87.42
2018-07-30T11:51:43.654Z,87.81
2018-07-30T11:52:43.629Z,88.00
2018-07-30T11:53:43.589Z,87.57
2018-07-30T11:54:43.519Z,87.76
2018-07-30T11:55:43.504Z,87.90
2018-07-30T11:56:43.412Z,88.39
2018-07-30T11:57:43.403Z,87.86
2018-07-30T11:58:43.325Z,87.96
2018-07-30T11:59:43.279Z,88.73
2018-07-30T12:00:43.256Z,88.82
2018-07-30T12:01:43.217Z,88.24
2018-07-30T12:02:43.147Z,87.76
2018-07-30T12:03:43.128Z,88.24
2018-07-30T12:04:43.067Z,88.63
2018-07-30T12:05:43.030Z,88.44
2018-07-30T12:06:42.983Z,88.44
2018-07-30T12:07:42.931Z,88.15
2018-07-30T12:08:42.940Z,88.06
2018-07-30T12:09:42.849Z,88.34
2018-07-30T12:10:42.793Z,88.15
2018-07-30T12:11:42.761Z,88.92
2018-07-30T12:12:42.739Z,88.92
2018-07-30T12:13:42.664Z,88.15
2018-07-30T12:14:42.596Z,88.63
2018-07-30T12:15:42.579Z,88.92
2018-07-30T12:16:42.529Z,88.77
2018-07-30T12:17:42.467Z,88.19
2018-07-30T12:18:42.510Z,88.00
2018-07-30T12:19:42.392Z,87.71
2018-07-30T12:20:42.341Z,88.10
2018-07-30T12:21:42.343Z,87.42
2018-07-30T12:22:42.329Z,87.23
2018-07-30T12:23:42.213Z,87.81
2018-07-30T12:24:42.184Z,87.76
2018-07-30T12:25:42.131Z,86.60
2018-07-30T12:26:42.065Z,86.60
2018-07-30T12:27:42.068Z,85.83
2018-07-30T12:28:42.037Z,85.16
2018-07-30T12:29:41.932Z,85.16
2018-07-30T12:30:41.970Z,85.35
2018-07-30T12:31:41.852Z,85.16
2018-07-30T12:32:41.801Z,84.39
2018-07-30T12:33:41.771Z,84.19
2018-07-30T12:34:41.724Z,84.00
2018-07-30T12:35:41.730Z,83.91
2018-07-30T12:36:41.609Z,84.05
2018-07-30T12:37:41.581Z,83.47
2018-07-30T12:38:41.552Z,83.37
2018-07-30T12:39:41.494Z,83.08
2018-07-30T12:40:41.496Z,83.18
2018-07-30T12:41:41.408Z,82.89
2018-07-30T12:42:41.359Z,82.98
2018-07-30T12:43:41.313Z,83.08
2018-07-30T12:44:41.286Z,82.79
2018-07-30T12:45:41.221Z,82.54
2018-07-30T12:46:41.166Z,82.16
2018-07-30T12:47:41.142Z,81.68
2018-07-30T12:48:41.106Z,82.35
2018-07-30T12:49:41.028Z,81.77
2018-07-30T12:50:41.000Z,82.06
2018-07-30T12:51:40.941Z,82.06